Time;durP1;ratioP1;P1;durP2;ratioP2;P2;SDS_P1;SDS_P2;PMS_P1;PMS_P2;Temp;Humidity;BMP_temperature;BMP_pressure;BME280_temperature;BME280_humidity;BME280_pressure;Samples;Min_cycle;Max_cycle;Signal;HPM_P1;HPM_P2
2022/06/08 00:02:11;;;;;;;1.48;1.00;;;;;;;14.02;100.00;95989.38;5024220;28;20049;-79
2022/06/08 00:04:37;;;;;;;2.17;1.27;;;;;;;13.97;100.00;95989.09;5016489;28;20060;-79
2022/06/08 00:07:03;;;;;;;3.13;1.30;;;;;;;13.99;100.00;95989.72;5010259;28;20033;-79
2022/06/08 00:09:29;;;;;;;2.97;1.10;;;;;;;13.94;100.00;95994.75;5015542;28;20052;-79
2022/06/08 00:11:56;;;;;;;2.40;1.00;;;;;;;14.01;100.00;95987.69;5015868;28;20018;-79
2022/06/08 00:14:21;;;;;;;2.60;1.03;;;;;;;13.99;100.00;95990.53;5023988;28;20032;-79
2022/06/08 00:16:47;;;;;;;1.83;0.90;;;;;;;13.94;100.00;95981.53;5032887;28;20029;-79
2022/06/08 00:19:13;;;;;;;1.90;1.27;;;;;;;13.95;100.00;95980.50;5015714;28;20478;-79
2022/06/08 00:21:39;;;;;;;1.47;1.17;;;;;;;13.90;100.00;95973.97;5015923;28;20038;-79
2022/06/08 00:24:05;;;;;;;1.87;1.20;;;;;;;13.82;100.00;95979.38;5017278;28;20034;-79
2022/06/08 00:26:31;;;;;;;1.47;1.00;;;;;;;13.79;100.00;95979.75;5032009;28;20048;-79
2022/06/08 00:28:56;;;;;;;2.30;1.40;;;;;;;13.80;100.00;95977.91;5046910;28;20590;-79
2022/06/08 00:31:22;;;;;;;2.40;1.30;;;;;;;13.68;100.00;95977.56;5038180;28;20026;-79
2022/06/08 00:33:48;;;;;;;3.53;1.70;;;;;;;13.71;100.00;95976.38;5020568;28;20017;-79
2022/06/08 00:36:14;;;;;;;2.47;1.13;;;;;;;13.73;100.00;95969.91;5034498;28;20037;-79
2022/06/08 00:38:40;;;;;;;1.50;0.93;;;;;;;13.68;100.00;95957.25;5020209;28;20044;-79
2022/06/08 00:41:24;;;;;;;1.20;1.00;;;;;;;13.62;100.00;95959.81;5032064;28;20046;-79
2022/06/08 00:43:50;;;;;;;2.53;1.20;;;;;;;13.61;100.00;95969.53;5015227;28;20037;-78
2022/06/08 00:46:16;;;;;;;2.43;1.10;;;;;;;13.58;100.00;95967.31;5045373;28;20109;-80
2022/06/08 00:48:49;;;;;;;1.50;1.03;;;;;;;13.51;100.00;95971.66;5019893;28;20034;-79
2022/06/08 00:51:16;;;;;;;2.27;1.20;;;;;;;13.44;100.00;95970.75;5051892;28;20044;-79
2022/06/08 00:53:48;;;;;;;3.27;1.20;;;;;;;13.36;100.00;95968.22;5016740;28;20149;-79
2022/06/08 00:56:18;;;;;;;3.30;1.27;;;;;;;13.29;100.00;95973.41;5015898;28;20033;-79
2022/06/08 00:58:45;;;;;;;2.33;1.50;;;;;;;13.25;100.00;95961.59;5014662;28;20033;-79
2022/06/08 01:01:12;;;;;;;2.17;1.40;;;;;;;13.21;100.00;95971.66;5022738;28;20034;-79
2022/06/08 01:03:39;;;;;;;2.77;1.57;;;;;;;13.17;100.00;95970.38;5008352;28;20095;-79
2022/06/08 01:06:18;;;;;;;3.57;1.40;;;;;;;13.19;100.00;95968.38;5019279;28;20046;-80
2022/06/08 01:08:47;;;;;;;2.27;1.47;;;;;;;13.16;100.00;95965.28;5011189;28;20299;-79
2022/06/08 01:11:21;;;;;;;3.25;1.52;;;;;;;13.14;100.00;95959.34;5002781;28;20030;-79
2022/06/08 01:13:46;;;;;;;3.07;1.50;;;;;;;13.11;100.00;95952.63;5010709;28;20064;-79
2022/06/08 01:16:16;;;;;;;5.07;1.80;;;;;;;13.09;100.00;95953.81;5030233;28;20038;-79
2022/06/08 01:18:43;;;;;;;2.43;1.70;;;;;;;13.09;100.00;95953.81;5007219;28;20073;-79
2022/06/08 01:21:22;;;;;;;3.10;2.10;;;;;;;13.03;100.00;95952.69;5003727;28;20032;-79
2022/06/08 01:24:14;;;;;;;2.35;1.48;;;;;;;12.98;100.00;95945.34;5013291;28;20037;-79
2022/06/08 01:27:20;;;;;;;4.50;1.85;;;;;;;12.89;100.00;95951.69;5018412;28;20130;-79
2022/06/08 01:30:13;;;;;;;2.27;1.43;;;;;;;12.92;100.00;95947.88;5018758;28;20032;-79
2022/06/08 01:33:08;;;;;;;2.67;1.53;;;;;;;12.84;100.00;95948.75;5004956;28;20031;-79
2022/06/08 01:35:54;;;;;;;3.63;1.80;;;;;;;12.76;100.00;95951.50;5008224;28;20056;-79
2022/06/08 01:38:32;;;;;;;2.30;1.43;;;;;;;12.75;100.00;95955.13;4997270;28;20080;-79
2022/06/08 01:41:13;;;;;;;3.30;1.80;;;;;;;12.66;100.00;95951.75;5017034;28;20034;-79
2022/06/08 01:43:51;;;;;;;3.30;1.70;;;;;;;12.59;100.00;95947.38;5007569;28;20101;-79
2022/06/08 01:46:24;;;;;;;3.13;1.70;;;;;;;12.43;100.00;95941.22;5007487;28;20455;-78
2022/06/08 01:49:08;;;;;;;5.15;1.90;;;;;;;12.38;100.00;95937.50;5006479;28;20061;-79
2022/06/08 01:52:00;;;;;;;3.93;1.60;;;;;;;12.39;100.00;95934.66;5024613;28;20026;-78
2022/06/08 01:54:35;;;;;;;3.03;1.83;;;;;;;12.35;100.00;95930.75;5023729;28;20128;-78
2022/06/08 01:57:33;;;;;;;2.77;1.80;;;;;;;12.33;100.00;95927.47;5007142;28;20124;-79
2022/06/08 02:00:10;;;;;;;5.47;2.57;;;;;;;12.27;100.00;95922.91;4997783;28;20037;-78
2022/06/08 02:03:06;;;;;;;3.80;1.60;;;;;;;12.25;100.00;95927.53;5029398;28;20026;-78
2022/06/08 02:06:01;;;;;;;3.13;1.80;;;;;;;12.21;100.00;95927.09;5009891;28;20030;-78
2022/06/08 02:08:37;;;;;;;2.27;1.57;;;;;;;12.18;100.00;95919.53;5015497;28;20040;-79
2022/06/08 02:11:30;;;;;;;4.43;2.13;;;;;;;12.16;100.00;95923.31;5032897;28;20112;-78
2022/06/08 02:14:20;;;;;;;4.47;1.63;;;;;;;12.21;100.00;95915.72;5007978;28;20038;-79
2022/06/08 02:16:51;;;;;;;3.50;2.00;;;;;;;12.18;100.00;95913.44;5033413;28;20120;-78
2022/06/08 02:19:46;;;;;;;3.43;1.80;;;;;;;12.15;100.00;95919.88;5029618;28;20067;-78
2022/06/08 02:22:23;;;;;;;2.93;1.90;;;;;;;12.23;100.00;95906.63;5005555;28;20145;-78
2022/06/08 02:25:19;;;;;;;5.73;1.97;;;;;;;12.15;100.00;95914.59;5023758;28;20037;-79
2022/06/08 02:27:45;;;;;;;4.73;2.20;;;;;;;12.18;100.00;95905.53;5021936;28;20056;-78
2022/06/08 02:30:15;;;;;;;4.90;2.30;;;;;;;12.16;100.00;95904.88;5027068;28;20098;-79
2022/06/08 02:35:44;;;;;;;2.93;1.83;;;;;;;12.16;100.00;95904.88;5028685;28;20022;-80
2022/06/08 02:38:15;;;;;;;4.70;2.27;;;;;;;12.22;100.00;95904.97;5031439;28;20034;-78
2022/06/08 02:40:47;;;;;;;9.83;2.63;;;;;;;12.17;100.00;95901.22;5028031;28;20021;-79
2022/06/08 02:43:22;;;;;;;6.07;2.37;;;;;;;12.22;100.00;95896.25;5025972;28;20030;-78
2022/06/08 02:46:13;;;;;;;5.50;1.83;;;;;;;12.25;100.00;95898.53;5014697;28;20412;-78
2022/06/08 02:48:39;;;;;;;4.30;2.33;;;;;;;12.30;100.00;95901.44;4997734;28;20037;-78
2022/06/08 02:51:04;;;;;;;5.27;1.90;;;;;;;12.27;100.00;95899.16;5009612;28;20058;-78
2022/06/08 02:53:33;;;;;;;5.63;2.07;;;;;;;12.33;100.00;95903.72;5013024;28;20562;-78
2022/06/08 02:56:04;;;;;;;4.10;1.80;;;;;;;12.35;100.00;95900.94;5018601;28;20057;-78
2022/06/08 02:58:52;;;;;;;5.20;1.93;;;;;;;12.44;100.00;95895.41;5006582;28;20048;-77
2022/06/08 03:01:30;;;;;;;4.37;2.03;;;;;;;12.49;100.00;95897.50;5018263;28;20428;-79
2022/06/08 03:04:04;;;;;;;3.27;1.97;;;;;;;12.48;100.00;95895.88;5010813;28;20030;-78
2022/06/08 03:06:40;;;;;;;4.23;2.40;;;;;;;12.39;100.00;95900.38;5016135;28;20037;-78
2022/06/08 03:09:10;;;;;;;4.27;1.90;;;;;;;12.41;100.00;95898.41;5026122;28;20037;-78
2022/06/08 03:11:40;;;;;;;3.23;1.83;;;;;;;12.48;100.00;95901.16;5017649;28;20416;-79
2022/06/08 03:14:12;;;;;;;4.10;2.30;;;;;;;12.36;100.00;95892.84;4995147;28;20026;-79
2022/06/08 03:16:51;;;;;;;6.27;2.47;;;;;;;12.36;100.00;95898.09;5011312;28;20044;-78
2022/06/08 03:19:17;;;;;;;4.10;2.20;;;;;;;12.49;100.00;95898.31;5012004;28;20080;-78
2022/06/08 03:21:45;;;;;;;4.77;1.90;;;;;;;12.55;100.00;95895.97;5023701;28;20038;-78
2022/06/08 03:24:11;;;;;;;4.43;1.80;;;;;;;12.61;100.00;95892.59;5012505;28;20044;-78
2022/06/08 03:26:44;;;;;;;3.67;1.70;;;;;;;12.68;100.00;95889.06;5012960;28;20037;-78
2022/06/08 03:29:12;;;;;;;;;;;;;;;12.71;100.00;95885.25;5010772;28;20034;-77
2022/06/08 03:31:38;;;;;;;7.13;1.80;;;;;;;12.61;100.00;95882.03;5034026;28;20401;-79
2022/06/08 03:34:05;;;;;;;5.90;2.10;;;;;;;12.60;100.00;95888.31;5009881;28;20034;-78
2022/06/08 03:36:31;;;;;;;5.33;3.30;;;;;;;12.63;100.00;95887.97;5005318;28;20044;-79
2022/06/08 03:38:59;;;;;;;4.37;2.10;;;;;;;12.74;100.00;95880.44;5020776;28;20033;-78
2022/06/08 03:41:24;;;;;;;4.63;1.90;;;;;;;12.81;100.00;95877.91;5002279;28;20049;-78
2022/06/08 03:43:50;;;;;;;4.23;2.17;;;;;;;12.67;100.00;95881.31;5030991;28;20071;-78
2022/06/08 03:46:18;;;;;;;5.30;2.33;;;;;;;12.65;100.00;95875.44;5011322;28;20498;-78
2022/06/08 03:48:45;;;;;;;4.90;2.20;;;;;;;12.67;100.00;95881.31;5011454;28;20494;-79
2022/06/08 03:51:15;;;;;;;5.37;2.00;;;;;;;12.59;100.00;95879.59;5028011;28;20041;-77
2022/06/08 03:54:02;;;;;;;4.57;2.00;;;;;;;12.55;100.00;95880.16;5023611;28;20013;-78
2022/06/08 03:56:30;;;;;;;5.43;2.17;;;;;;;12.62;100.00;95876.59;5009383;28;20026;-78
2022/06/08 03:58:57;;;;;;;7.07;2.17;;;;;;;12.65;100.00;95881.53;5009354;28;20030;-78
2022/06/08 04:01:25;;;;;;;5.60;1.97;;;;;;;12.76;100.00;95871.53;5025972;28;20380;-78
2022/06/08 04:03:55;;;;;;;3.57;2.10;;;;;;;12.74;100.00;95871.69;5000601;28;20065;-78
2022/06/08 04:06:24;;;;;;;4.87;2.10;;;;;;;12.79;100.00;95877.25;5039437;28;20434;-77
2022/06/08 04:08:53;;;;;;;6.57;2.07;;;;;;;12.74;100.00;95869.03;5012098;28;20034;-78
2022/06/08 04:11:19;;;;;;;4.03;1.83;;;;;;;12.86;100.00;95878.16;5010260;28;20049;-78
2022/06/08 04:13:45;;;;;;;4.60;1.83;;;;;;;13.00;100.00;95870.41;5027315;28;20022;-79
2022/06/08 04:16:16;;;;;;;4.17;2.33;;;;;;;13.08;100.00;95872.97;5008942;28;20103;-78
2022/06/08 04:18:43;;;;;;;3.73;1.87;;;;;;;13.23;100.00;95867.66;5015085;28;20029;-79
2022/06/08 04:21:12;;;;;;;4.13;1.97;;;;;;;13.26;100.00;95864.69;4990599;28;20030;-79
2022/06/08 04:23:45;;;;;;;6.05;1.73;;;;;;;13.22;100.00;95861.56;5004170;28;20153;-78
2022/06/08 04:26:12;;;;;;;4.90;2.10;;;;;;;13.25;100.00;95855.97;5012541;28;20038;-78
2022/06/08 04:28:40;;;;;;;5.00;1.97;;;;;;;13.24;100.00;95864.84;5018255;28;20116;-78
2022/06/08 04:31:13;;;;;;;4.23;2.07;;;;;;;13.40;100.00;95848.81;5012794;28;20088;-79
2022/06/08 04:33:42;;;;;;;5.00;1.90;;;;;;;13.50;100.00;95853.78;5037644;28;20472;-78
2022/06/08 04:36:09;;;;;;;4.67;1.90;;;;;;;13.39;100.00;95849.81;5020671;28;20044;-78
2022/06/08 04:38:37;;;;;;;4.00;1.60;;;;;;;13.52;100.00;95858.91;5009995;28;20021;-78
2022/06/08 04:41:04;;;;;;;5.27;2.13;;;;;;;13.57;100.00;95856.50;5010035;28;20051;-78
2022/06/08 04:43:32;;;;;;;3.77;2.00;;;;;;;13.66;100.00;95856.19;5028928;28;20104;-78
2022/06/08 04:45:59;;;;;;;4.90;1.97;;;;;;;13.78;100.00;95856.53;5011007;28;20033;-78
2022/06/08 04:48:27;;;;;;;2.80;1.60;;;;;;;13.75;100.00;95853.44;5011370;28;20030;-78
2022/06/08 04:50:53;;;;;;;7.93;1.97;;;;;;;13.91;100.00;95856.63;5012935;28;20045;-79
2022/06/08 04:53:20;;;;;;;5.00;1.87;;;;;;;13.87;100.00;95852.75;5030649;28;20026;-79
2022/06/08 04:55:46;;;;;;;7.27;1.97;;;;;;;13.78;100.00;95851.25;5041324;28;20579;-78
2022/06/08 04:58:13;;;;;;;5.17;2.07;;;;;;;13.91;100.00;95867.22;5032650;28;20048;-78
2022/06/08 05:00:40;;;;;;;2.77;1.70;;;;;;;14.02;100.00;95870.38;5018732;28;20045;-79
2022/06/08 05:03:08;;;;;;;5.77;2.30;;;;;;;13.90;100.00;95870.88;5016825;28;20033;-79
2022/06/08 05:05:40;;;;;;;6.23;2.07;;;;;;;13.99;100.00;95863.66;5034878;28;20029;-78
2022/06/08 05:08:18;;;;;;;4.13;1.60;;;;;;;14.19;100.00;95852.44;5037308;28;20049;-79
2022/06/08 05:10:48;;;;;;;6.50;1.93;;;;;;;14.07;100.00;95855.56;5029196;28;20033;-79
2022/06/08 05:13:18;;;;;;;4.43;1.80;;;;;;;14.11;100.00;95861.28;5010295;28;20096;-79
2022/06/08 05:15:49;;;;;;;7.43;2.10;;;;;;;14.15;100.00;95857.25;5003075;28;20038;-79
2022/06/08 05:18:21;;;;;;;5.10;1.70;;;;;;;14.20;100.00;95846.94;5012762;28;20038;-79
2022/06/08 05:20:49;;;;;;;6.20;2.37;;;;;;;14.25;100.00;95852.47;5032247;28;20030;-79
2022/06/08 05:23:22;;;;;;;4.30;1.67;;;;;;;14.19;100.00;95837.38;5013455;28;20029;-78
2022/06/08 05:25:52;;;;;;;4.57;1.83;;;;;;;14.41;100.00;95839.97;5012475;28;20049;-79
2022/06/08 05:28:18;;;;;;;4.47;1.80;;;;;;;14.39;100.00;95841.00;5024659;28;20029;-79
2022/06/08 05:30:51;;;;;;;3.10;1.67;;;;;;;14.56;100.00;95841.53;5002153;28;20061;-78
2022/06/08 05:33:17;;;;;;;4.87;1.70;;;;;;;14.72;100.00;95835.13;5010347;28;20034;-79
2022/06/08 05:35:44;;;;;;;3.97;1.73;;;;;;;14.97;100.00;95830.16;5011122;28;20173;-79
2022/06/08 05:38:12;;;;;;;3.00;1.73;;;;;;;15.27;100.00;95825.41;5013122;28;20021;-79
2022/06/08 05:40:39;;;;;;;4.65;1.83;;;;;;;15.38;100.00;95825.84;5020014;28;20144;-79
2022/06/08 05:43:10;;;;;;;10.73;1.90;;;;;;;15.61;100.00;95825.50;5008273;28;20038;-78
2022/06/08 05:45:38;;;;;;;4.10;1.67;;;;;;;15.91;100.00;95820.69;5033543;28;20033;-79
2022/06/08 05:48:05;;;;;;;4.95;1.98;;;;;;;15.90;100.00;95829.66;5014954;28;20036;-79
2022/06/08 05:50:35;;;;;;;3.53;1.67;;;;;;;15.72;100.00;95832.88;5014063;28;20121;-79
2022/06/08 05:53:02;;;;;;;3.83;1.58;;;;;;;15.87;100.00;95835.38;5005503;28;20049;-79
2022/06/08 05:55:28;;;;;;;6.55;1.48;;;;;;;16.00;100.00;95832.75;4999412;28;20038;-78
2022/06/08 05:57:55;;;;;;;5.25;1.77;;;;;;;16.37;100.00;95825.19;5021925;28;20026;-78
2022/06/08 06:00:27;;;;;;;8.18;2.15;;;;;;;16.72;100.00;95829.22;5021884;28;20026;-78
2022/06/08 06:02:53;;;;;;;10.77;3.30;;;;;;;16.79;100.00;95828.41;5018293;28;20037;-79
2022/06/08 06:05:22;;;;;;;4.00;1.67;;;;;;;16.94;100.00;95826.34;5030505;28;20096;-79
2022/06/08 06:07:48;;;;;;;5.32;1.98;;;;;;;17.23;100.00;95821.53;5008538;28;20034;-79
2022/06/08 06:10:37;;;;;;;4.20;1.60;;;;;;;17.77;100.00;95820.25;5017138;28;20104;-78
2022/06/08 06:13:05;;;;;;;7.50;1.45;;;;;;;17.95;100.00;95814.22;5041611;28;20038;-78
2022/06/08 06:15:41;;;;;;;5.28;1.40;;;;;;;18.33;100.00;95814.13;5005467;28;20128;-78
2022/06/08 06:18:08;;;;;;;6.68;1.52;;;;;;;18.40;100.00;95806.88;5032075;28;20703;-78
2022/06/08 06:20:36;;;;;;;4.53;1.70;;;;;;;18.59;100.00;95805.91;5022767;28;20022;-78
2022/06/08 06:23:11;;;;;;;4.00;1.45;;;;;;;18.77;100.00;95804.31;5008112;28;20089;-78
2022/06/08 06:25:57;;;;;;;3.35;1.27;;;;;;;18.84;100.00;95794.41;5020001;28;20034;-78
2022/06/08 06:28:41;;;;;;;3.08;1.10;;;;;;;19.31;92.81;95794.66;5022008;28;20072;-78
2022/06/08 06:31:26;;;;;;;3.65;1.10;;;;;;;19.12;88.16;95795.75;5028106;28;20437;-78
2022/06/08 06:34:00;;;;;;;7.53;1.38;;;;;;;19.81;90.90;95794.41;5024662;28;20030;-78
2022/06/08 06:36:27;;;;;;;2.88;1.00;;;;;;;19.60;81.07;95789.56;5022590;28;20025;-78
2022/06/08 06:38:53;;;;;;;5.25;1.30;;;;;;;19.81;82.78;95793.59;5010371;28;20034;-78
2022/06/08 06:41:20;;;;;;;5.65;1.00;;;;;;;19.78;84.81;95794.88;5004765;28;20131;-78
2022/06/08 06:43:49;;;;;;;6.82;1.27;;;;;;;19.95;82.55;95795.03;5006444;28;20420;-78
2022/06/08 06:46:22;;;;;;;5.95;1.13;;;;;;;19.83;80.97;95795.00;5028322;28;20942;-78
2022/06/08 06:49:02;;;;;;;5.20;1.10;;;;;;;20.42;81.62;95785.25;5022652;28;20037;-78
2022/06/08 06:51:28;;;;;;;3.42;1.20;;;;;;;20.27;78.69;95787.56;5031222;28;20061;-78
2022/06/08 06:53:54;;;;;;;9.93;1.52;;;;;;;20.62;74.18;95784.94;5010085;28;20070;-78
2022/06/08 06:56:20;;;;;;;3.90;0.90;;;;;;;19.73;74.80;95786.75;5033549;28;20034;-77
2022/06/08 06:58:54;;;;;;;2.75;1.10;;;;;;;20.45;75.63;95778.59;4994091;28;20093;-78
2022/06/08 07:01:21;;;;;;;6.07;1.02;;;;;;;20.22;74.36;95780.25;5026027;28;20087;-78
2022/06/08 07:03:47;;;;;;;5.28;1.55;;;;;;;20.77;70.96;95767.59;5019919;28;20086;-78
2022/06/08 07:06:13;;;;;;;6.57;1.25;;;;;;;21.39;69.50;95760.63;5032665;28;20040;-77
2022/06/08 07:08:39;;;;;;;4.20;1.10;;;;;;;21.00;68.77;95769.41;5013666;28;20061;-78
2022/06/08 07:13:52;;;;;;;4.20;1.10;;;;;;;21.01;67.66;95765.69;5045225;28;20125;-78
2022/06/08 07:16:18;;;;;;;3.05;1.20;;;;;;;22.22;67.96;95766.34;5023053;28;20061;-78
2022/06/08 07:18:44;;;;;;;5.78;1.30;;;;;;;21.85;65.54;95765.97;5004728;28;20065;-78
2022/06/08 07:21:11;;;;;;;4.97;1.10;;;;;;;22.24;61.62;95761.56;5021248;28;20378;-78
2022/06/08 07:23:37;;;;;;;4.95;1.48;;;;;;;22.70;59.66;95751.53;5019976;28;20093;-78
2022/06/08 07:26:03;;;;;;;5.18;0.98;;;;;;;23.50;60.97;95754.63;5025016;28;20029;-78
2022/06/08 07:28:28;;;;;;;5.32;1.00;;;;;;;23.82;55.87;95748.53;5013265;28;20078;-78
2022/06/08 07:30:54;;;;;;;4.38;1.30;;;;;;;23.73;57.83;95749.00;5031488;28;20540;-78
2022/06/08 07:33:20;;;;;;;3.65;1.00;;;;;;;23.20;56.47;95750.53;5033462;28;20457;-78
2022/06/08 07:35:47;;;;;;;5.88;1.02;;;;;;;23.47;57.20;95747.91;5021009;28;20037;-78
2022/06/08 07:38:13;;;;;;;3.65;0.90;;;;;;;24.36;52.93;95738.50;5005739;28;20045;-78
2022/06/08 07:40:39;;;;;;;6.15;1.15;;;;;;;23.72;52.97;95736.63;5024004;28;20052;-79
2022/06/08 07:43:05;;;;;;;5.93;1.23;;;;;;;23.70;54.43;95736.06;5039222;28;20072;-78
2022/06/08 07:45:31;;;;;;;3.88;1.10;;;;;;;22.94;52.77;95733.34;5028918;28;20025;-82
2022/06/08 07:50:42;;;;;;;3.72;1.30;;;;;;;24.73;50.45;95729.63;5042923;28;20058;-78
2022/06/08 07:53:08;;;;;;;6.03;1.15;;;;;;;24.63;50.52;95727.69;5013411;28;20092;-78
2022/06/08 07:55:35;;;;;;;3.70;1.25;;;;;;;24.94;51.09;95725.13;5016579;28;20029;-78
2022/06/08 07:58:02;;;;;;;2.78;0.98;;;;;;;24.55;48.45;95730.88;5005968;28;20038;-78
2022/06/08 08:00:28;;;;;;;5.68;1.08;;;;;;;24.56;47.75;95724.41;5032194;28;20465;-78
2022/06/08 08:02:55;;;;;;;4.93;1.38;;;;;;;24.73;47.87;95720.75;5024652;28;20022;-78
2022/06/08 08:05:22;;;;;;;2.90;0.98;;;;;;;25.26;45.94;95710.78;5019502;28;20052;-78
2022/06/08 08:07:48;;;;;;;3.15;0.90;;;;;;;25.39;47.13;95710.25;5028904;28;20033;-78
2022/06/08 08:10:18;;;;;;;4.00;0.85;;;;;;;25.13;45.12;95712.88;5008901;28;20105;-78
2022/06/08 08:12:46;;;;;;;2.60;0.80;;;;;;;24.75;44.22;95702.44;5019383;28;20052;-78
2022/06/08 08:15:13;;;;;;;2.45;0.90;;;;;;;25.75;47.54;95696.84;5001999;28;20097;-79
2022/06/08 08:17:41;;;;;;;4.45;1.23;;;;;;;26.46;46.93;95691.44;5008500;28;20030;-79
2022/06/08 08:20:08;;;;;;;4.43;0.90;;;;;;;26.85;42.43;95687.31;5039802;28;20030;-79
2022/06/08 08:22:34;;;;;;;2.30;0.70;;;;;;;26.34;41.29;95686.34;5023575;28;20060;-79
2022/06/08 08:25:00;;;;;;;7.28;0.98;;;;;;;25.65;40.40;95686.88;5025571;28;20030;-79
2022/06/08 08:27:26;;;;;;;3.67;1.10;;;;;;;27.24;37.70;95682.03;5013142;28;20030;-79
2022/06/08 08:29:52;;;;;;;2.58;0.90;;;;;;;27.25;42.50;95680.94;5014688;28;20022;-79
2022/06/08 08:32:17;;;;;;;5.78;1.45;;;;;;;26.93;38.69;95679.47;5013275;28;20066;-79
2022/06/08 08:34:43;;;;;;;4.93;1.20;;;;;;;26.60;40.58;95674.72;5020196;28;20044;-79
2022/06/08 08:37:09;;;;;;;3.20;1.10;;;;;;;27.49;38.89;95681.88;5005795;28;20041;-79
2022/06/08 08:39:35;;;;;;;3.90;1.27;;;;;;;27.01;39.39;95676.16;5030296;28;20034;-79
2022/06/08 08:42:20;;;;;;;2.85;0.80;;;;;;;27.66;38.20;95670.69;5006663;28;20022;-79
2022/06/08 08:44:48;;;;;;;3.75;1.08;;;;;;;26.29;42.22;95669.34;5031086;28;20093;-79
2022/06/08 08:47:40;;;;;;;6.25;1.50;;;;;;;26.79;38.39;95673.03;5005595;28;20036;-79
2022/06/08 08:50:25;;;;;;;3.95;0.98;;;;;;;25.47;44.49;95672.03;5024642;28;20034;-79
2022/06/08 08:53:09;;;;;;;4.55;1.40;;;;;;;25.01;44.58;95658.44;5017006;28;20638;-79
2022/06/08 08:55:51;;;;;;;4.63;1.10;;;;;;;27.33;40.25;95661.47;5041124;28;20030;-79
2022/06/08 08:58:25;;;;;;;4.25;1.10;;;;;;;27.29;40.50;95662.28;5026592;28;20042;-79
2022/06/08 09:00:58;;;;;;;5.20;1.20;;;;;;;26.02;39.63;95648.94;5016186;28;20034;-79
2022/06/08 09:03:56;;;;;;;3.88;1.25;;;;;;;26.81;39.94;95654.69;5019058;28;20053;-79
2022/06/08 09:06:24;;;;;;;2.88;0.88;;;;;;;24.64;43.18;95662.06;5030881;28;20049;-79
2022/06/08 09:08:55;;;;;;;2.28;0.90;;;;;;;24.47;44.66;95661.44;5027582;28;20087;-79
2022/06/08 09:11:22;;;;;;;3.40;1.10;;;;;;;25.53;41.75;95651.34;5005212;28;20033;-79
2022/06/08 09:14:00;;;;;;;8.75;1.25;;;;;;;23.55;46.07;95663.44;5014926;28;20022;-79
2022/06/08 09:16:40;;;;;;;8.15;1.58;;;;;;;23.37;48.70;95659.22;5022085;28;20120;-79
2022/06/08 09:19:21;;;;;;;0.98;0.70;;;;;;;25.32;45.64;95642.44;5022052;28;20049;-79
2022/06/08 09:21:49;;;;;;;3.80;1.00;;;;;;;25.32;43.90;95639.72;5028321;28;20030;-79
2022/06/08 09:24:46;;;;;;;3.10;1.13;;;;;;;27.27;40.20;95630.19;5010584;28;20048;-80
2022/06/08 09:27:16;;;;;;;3.80;1.15;;;;;;;27.24;38.82;95630.75;5017146;28;20061;-79
2022/06/08 09:30:09;;;;;;;3.70;1.02;;;;;;;26.68;40.10;95629.09;5006799;28;20134;-79
2022/06/08 09:32:39;;;;;;;6.22;1.88;;;;;;;26.64;39.30;95628.03;5001081;28;20449;-79
2022/06/08 09:35:22;;;;;;;3.90;1.00;;;;;;;27.18;39.04;95624.56;5015234;28;20133;-79
2022/06/08 09:37:51;;;;;;;4.43;1.42;;;;;;;27.11;37.82;95631.34;5019793;28;20029;-79
2022/06/08 09:40:36;;;;;;;4.30;1.02;;;;;;;25.63;40.54;95630.59;5016709;28;20438;-79
2022/06/08 09:43:21;;;;;;;4.07;0.77;;;;;;;25.18;43.13;95628.66;5006521;28;20037;-79
2022/06/08 09:52:17;;;;;;;3.13;0.90;;;;;;;24.82;45.00;95627.75;5013073;28;20052;-79
2022/06/08 09:55:04;;;;;;;2.97;0.80;;;;;;;24.57;43.15;95621.19;5026706;28;20062;-79
2022/06/08 09:57:35;;;;;;;5.13;1.42;;;;;;;24.62;45.26;95621.22;5024816;28;20406;-79
2022/06/08 10:00:09;;;;;;;3.72;0.88;;;;;;;24.08;44.03;95615.25;5006418;28;20112;-79
2022/06/08 10:03:00;;;;;;;4.75;1.02;;;;;;;26.22;39.76;95604.16;5028367;28;20042;-79
2022/06/08 10:05:42;;;;;;;4.18;1.20;;;;;;;26.44;40.03;95599.22;5022623;28;20534;-79
2022/06/08 10:08:24;;;;;;;1.60;0.70;;;;;;;25.59;42.53;95596.41;5031445;28;20042;-79
2022/06/08 10:14:35;;;;;;;4.72;1.85;;;;;;;25.21;41.29;95593.13;5022573;28;20124;-79
2022/06/08 10:17:23;;;;;;;3.28;0.80;;;;;;;25.02;41.97;95584.75;5022095;28;20598;-79
2022/06/08 10:19:57;;;;;;;4.03;0.80;;;;;;;24.82;39.37;95592.78;5024907;28;20044;-79
2022/06/08 10:22:28;;;;;;;13.57;5.03;;;;;;;24.80;38.48;95584.97;5024190;28;20041;-79
2022/06/08 10:25:12;;;;;;;7.55;4.15;;;;;;;24.53;37.69;95582.47;5021366;28;20045;-79
2022/06/08 10:28:04;;;;;;;3.83;1.23;;;;;;;24.83;37.01;95584.44;5017381;28;20026;-79
2022/06/08 10:30:38;;;;;;;2.70;0.75;;;;;;;23.94;37.76;95585.34;5031356;28;20041;-78
2022/06/08 10:33:16;;;;;;;2.28;0.70;;;;;;;24.22;38.18;95578.81;5037023;28;20045;-80
2022/06/08 10:35:50;;;;;;;2.05;0.73;;;;;;;24.26;37.10;95582.59;5007410;28;20053;-79
2022/06/08 10:38:26;;;;;;;1.40;0.50;;;;;;;23.90;38.73;95579.69;5009510;28;20041;-79
2022/06/08 10:43:59;;;;;;;2.65;0.93;;;;;;;25.71;37.87;95571.88;5032905;28;20042;-79
2022/06/08 10:46:43;;;;;;;2.22;0.90;;;;;;;25.82;37.24;95560.03;5019860;28;20030;-79
2022/06/08 10:49:31;;;;;;;2.55;0.60;;;;;;;25.64;36.18;95556.81;5013640;28;20424;-79
2022/06/08 10:52:12;;;;;;;4.80;1.17;;;;;;;26.18;33.58;95549.97;5010557;28;20142;-79
2022/06/08 10:54:55;;;;;;;2.42;0.60;;;;;;;26.36;33.01;95548.59;5031830;28;20375;-79
2022/06/08 10:57:36;;;;;;;2.35;0.70;;;;;;;27.74;32.14;95545.03;5004748;28;20045;-79
2022/06/08 11:00:24;;;;;;;3.60;0.70;;;;;;;26.23;33.39;95549.19;5018167;28;20648;-80
2022/06/08 11:03:00;;;;;;;2.35;0.60;;;;;;;24.79;34.42;95550.28;5019879;28;20168;-79
2022/06/08 11:05:33;;;;;;;2.72;0.95;;;;;;;26.13;34.77;95546.53;5018940;28;20476;-79
2022/06/08 11:08:00;;;;;;;4.45;0.73;;;;;;;26.17;34.44;95543.00;5043695;28;20073;-80
2022/06/08 11:11:01;;;;;;;2.45;0.63;;;;;;;26.15;35.42;95550.53;5039583;28;20045;-79
2022/06/08 11:13:50;;;;;;;3.20;0.65;;;;;;;26.29;33.23;95540.81;4977570;28;20041;-80
2022/06/08 11:16:27;;;;;;;4.38;0.68;;;;;;;26.48;33.37;95540.19;5002922;28;20044;-79
2022/06/08 11:19:01;;;;;;;4.03;0.70;;;;;;;25.96;34.35;95536.88;5009420;28;20045;-79
2022/06/08 11:21:44;;;;;;;3.60;1.02;;;;;;;26.18;33.32;95533.00;5025715;28;20042;-80
2022/06/08 11:24:47;;;;;;;1.23;0.60;;;;;;;27.65;33.41;95517.00;5015120;28;20034;-80
2022/06/08 11:27:25;;;;;;;1.80;0.63;;;;;;;27.72;32.39;95515.56;5016539;28;20069;-80
2022/06/08 11:30:26;;;;;;;4.22;1.02;;;;;;;27.27;34.99;95514.91;5012722;28;20095;-79
2022/06/08 11:32:51;;;;;;;2.20;0.60;;;;;;;26.98;32.19;95514.00;5030434;28;20145;-80
2022/06/08 11:36:02;;;;;;;1.58;0.50;;;;;;;26.17;30.69;95515.25;5009708;28;20487;-79
2022/06/08 11:38:57;;;;;;;1.73;0.65;;;;;;;26.20;32.45;95512.00;4997137;28;20704;-80
2022/06/08 11:41:34;;;;;;;3.70;0.77;;;;;;;26.08;34.25;95505.00;5024882;28;20124;-79
2022/06/08 11:44:18;;;;;;;1.33;0.52;;;;;;;26.95;33.83;95504.59;5017484;28;20471;-79
2022/06/08 11:47:00;;;;;;;4.07;1.25;;;;;;;28.25;29.04;95493.13;5018150;28;20033;-79
2022/06/08 11:49:45;;;;;;;;;;;;;;;28.57;29.22;95497.06;5017649;28;20046;-78
2022/06/08 11:52:26;;;;;;;3.00;1.10;;;;;;;28.00;28.17;95496.94;5013787;28;19928;-77
2022/06/08 11:55:08;;;;;;;2.70;0.95;;;;;;;27.77;30.32;95489.63;5006958;28;20029;-78
2022/06/08 11:57:37;;;;;;;3.35;0.60;;;;;;;28.50;30.25;95485.81;5023685;28;20040;-78
2022/06/08 12:00:14;;;;;;;2.92;0.93;;;;;;;26.76;31.09;95485.56;5033011;28;20046;-78
2022/06/08 12:02:41;;;;;;;2.28;0.88;;;;;;;28.20;31.34;95485.06;5026325;28;20060;-78
2022/06/08 12:05:07;;;;;;;1.88;0.75;;;;;;;27.80;29.64;95481.78;5028762;28;20029;-78
2022/06/08 12:07:50;;;;;;;3.28;0.80;;;;;;;27.15;32.07;95481.25;5038366;28;20104;-78
2022/06/08 12:10:21;;;;;;;;;;;;;;;25.98;33.11;95485.38;5007621;28;20041;-78
2022/06/08 12:12:48;;;;;;;1.25;0.60;;;;;;;24.99;35.72;95488.44;5023700;28;19914;-78
2022/06/08 12:15:44;;;;;;;2.47;0.85;;;;;;;24.48;35.49;95488.38;5010433;28;20056;-78
2022/06/08 12:18:28;;;;;;;3.28;0.52;;;;;;;24.30;36.27;95483.44;5015204;28;20034;-78
2022/06/08 12:21:26;;;;;;;3.60;0.80;;;;;;;24.55;35.12;95477.38;5024289;28;20026;-78